BCS42D LHBP-LRTR
Flight info
| Callsign | BCS42D |
|---|---|
| Flight time | 0h 35m |
| Altitude | 25000 |
| Route | GAZDA DCT BUG DCT SEG DCT ROMUX |
| Aircraft | A306/H-SDE3FGHIRWY/LB1 |
Departure
| Time | 2026-05-06 07:11 |
|---|---|
| Airport | Budapest Liszt Ferenc International Airport (LHBP) |
Arrival
| Time | 2026-05-06 07:46 |
|---|---|
| Airport | Timișoara Traian Vuia International Airport (LRTR) |
| Time | Latitude | Longitude | Altitude | Speed | Heading |
|---|---|---|---|---|---|
| 2026-05-06 06:34 | 47.44276 | 19.22423 | 463 ft | 0 kts | 288° |
| 2026-05-06 06:37 | 47.44275 | 19.22423 | 463 ft | 0 kts | 288° |
| 2026-05-06 06:52 | 47.44275 | 19.22424 | 463 ft | 0 kts | 288° |
| 2026-05-06 07:01 | 47.44275 | 19.22425 | 463 ft | 1 kts | 288° |
| 2026-05-06 07:01 | 47.44270 | 19.22458 | 463 ft | 4 kts | 265° |
| 2026-05-06 07:02 | 47.44276 | 19.22488 | 461 ft | 4 kts | 209° |
| 2026-05-06 07:02 | 47.44299 | 19.22494 | 460 ft | 4 kts | 170° |
| 2026-05-06 07:02 | 47.44324 | 19.22484 | 460 ft | 4 kts | 159° |
| 2026-05-06 07:02 | 47.44346 | 19.22471 | 460 ft | 1 kts | 154° |
| 2026-05-06 07:05 | 47.44345 | 19.22472 | 460 ft | 2 kts | 153° |
| 2026-05-06 07:05 | 47.44314 | 19.22497 | 460 ft | 8 kts | 154° |
| 2026-05-06 07:05 | 47.44238 | 19.22545 | 463 ft | 15 kts | 157° |
| 2026-05-06 07:05 | 47.44121 | 19.22624 | 463 ft | 22 kts | 154° |
| 2026-05-06 07:06 | 47.43985 | 19.22662 | 463 ft | 18 kts | 194° |
| 2026-05-06 07:06 | 47.43865 | 19.22593 | 463 ft | 17 kts | 186° |
| 2026-05-06 07:06 | 47.43777 | 19.22646 | 463 ft | 11 kts | 139° |
| 2026-05-06 07:06 | 47.43708 | 19.22687 | 463 ft | 15 kts | 156° |
| 2026-05-06 07:07 | 47.43592 | 19.22810 | 463 ft | 27 kts | 143° |
| 2026-05-06 07:07 | 47.43489 | 19.23070 | 463 ft | 31 kts | 111° |
| 2026-05-06 07:07 | 47.43393 | 19.23347 | 463 ft | 29 kts | 118° |
| 2026-05-06 07:07 | 47.43300 | 19.23619 | 461 ft | 28 kts | 107° |
| 2026-05-06 07:08 | 47.43224 | 19.23845 | 461 ft | 20 kts | 118° |
| 2026-05-06 07:08 | 47.43171 | 19.24008 | 463 ft | 17 kts | 113° |
| 2026-05-06 07:08 | 47.43125 | 19.24146 | 463 ft | 14 kts | 121° |
| 2026-05-06 07:08 | 47.43083 | 19.24273 | 460 ft | 14 kts | 117° |
| 2026-05-06 07:09 | 47.43033 | 19.24416 | 462 ft | 18 kts | 118° |
| 2026-05-06 07:09 | 47.42966 | 19.24613 | 463 ft | 23 kts | 110° |
| 2026-05-06 07:09 | 47.42922 | 19.24767 | 464 ft | 25 kts | 104° |
| 2026-05-06 07:09 | 47.42965 | 19.24884 | 464 ft | 17 kts | 43° |
| 2026-05-06 07:10 | 47.43080 | 19.24985 | 463 ft | 10 kts | 349° |
| 2026-05-06 07:10 | 47.43143 | 19.24874 | 463 ft | 26 kts | 308° |
| 2026-05-06 07:10 | 47.43437 | 19.24391 | 461 ft | 103 kts | 312° |
| 2026-05-06 07:10 | 47.44081 | 19.23347 | 462 ft | 174 kts | 313° |
| 2026-05-06 07:11 | 47.45071 | 19.21912 | 1026 ft | 210 kts | 316° |
| 2026-05-06 07:11 | 47.46244 | 19.20483 | 2193 ft | 225 kts | 316° |
| 2026-05-06 07:11 | 47.47322 | 19.18980 | 3573 ft | 203 kts | 310° |
| 2026-05-06 07:11 | 47.48335 | 19.17471 | 4285 ft | 221 kts | 308° |
| 2026-05-06 07:12 | 47.49108 | 19.15399 | 4766 ft | 242 kts | 284° |
| 2026-05-06 07:12 | 47.49394 | 19.12876 | 5393 ft | 254 kts | 269° |
| 2026-05-06 07:12 | 47.49184 | 19.10279 | 6305 ft | 256 kts | 252° |
| 2026-05-06 07:12 | 47.48449 | 19.07874 | 7240 ft | 258 kts | 235° |
| 2026-05-06 07:13 | 47.47216 | 19.05933 | 8243 ft | 260 kts | 217° |
| 2026-05-06 07:13 | 47.45615 | 19.04670 | 9235 ft | 264 kts | 203° |
| 2026-05-06 07:13 | 47.43884 | 19.03790 | 10160 ft | 268 kts | 200° |
| 2026-05-06 07:13 | 47.42058 | 19.02924 | 10697 ft | 284 kts | 200° |
| 2026-05-06 07:14 | 47.40165 | 19.02019 | 11586 ft | 282 kts | 200° |
| 2026-05-06 07:14 | 47.38322 | 19.01132 | 12672 ft | 276 kts | 200° |
| 2026-05-06 07:14 | 47.36478 | 19.00255 | 13535 ft | 279 kts | 198° |
| 2026-05-06 07:14 | 47.34541 | 18.99816 | 14239 ft | 287 kts | 184° |
| 2026-05-06 07:15 | 47.32546 | 19.00287 | 14888 ft | 297 kts | 164° |
| 2026-05-06 07:15 | 47.30642 | 19.01516 | 15578 ft | 302 kts | 157° |
| 2026-05-06 07:15 | 47.28744 | 19.02942 | 16253 ft | 306 kts | 156° |
| 2026-05-06 07:15 | 47.26849 | 19.04404 | 16912 ft | 310 kts | 155° |
| 2026-05-06 07:16 | 47.24998 | 19.06027 | 17556 ft | 315 kts | 146° |
| 2026-05-06 07:16 | 47.23315 | 19.08130 | 18202 ft | 320 kts | 140° |
| 2026-05-06 07:16 | 47.21682 | 19.10392 | 18757 ft | 324 kts | 139° |
| 2026-05-06 07:16 | 47.20056 | 19.12715 | 19297 ft | 327 kts | 138° |
| 2026-05-06 07:17 | 47.18423 | 19.15074 | 19859 ft | 330 kts | 138° |
| 2026-05-06 07:17 | 47.16784 | 19.17450 | 20394 ft | 333 kts | 138° |
| 2026-05-06 07:18 | 47.15431 | 19.19414 | 20836 ft | 335 kts | 138° |
| 2026-05-06 07:18 | 47.13765 | 19.21831 | 21370 ft | 338 kts | 138° |
| 2026-05-06 07:18 | 47.12083 | 19.24268 | 21913 ft | 341 kts | 138° |
| 2026-05-06 07:18 | 47.10408 | 19.26697 | 22444 ft | 344 kts | 137° |
| 2026-05-06 07:19 | 47.08698 | 19.29174 | 22976 ft | 347 kts | 137° |
| 2026-05-06 07:19 | 47.06969 | 19.31676 | 23514 ft | 350 kts | 137° |
| 2026-05-06 07:19 | 47.05231 | 19.34191 | 23955 ft | 353 kts | 137° |
| 2026-05-06 07:19 | 47.03467 | 19.36743 | 24382 ft | 356 kts | 137° |
| 2026-05-06 07:20 | 47.01858 | 19.39067 | 24774 ft | 359 kts | 138° |
| 2026-05-06 07:20 | 47.00023 | 19.41711 | 24931 ft | 360 kts | 138° |
| 2026-05-06 07:20 | 46.98220 | 19.44305 | 24972 ft | 370 kts | 138° |
| 2026-05-06 07:20 | 46.96346 | 19.47001 | 24974 ft | 385 kts | 138° |
| 2026-05-06 07:21 | 46.94404 | 19.49790 | 24972 ft | 399 kts | 137° |
| 2026-05-06 07:21 | 46.92417 | 19.52643 | 24972 ft | 412 kts | 137° |
| 2026-05-06 07:21 | 46.90331 | 19.55635 | 24975 ft | 425 kts | 137° |
| 2026-05-06 07:21 | 46.88191 | 19.58704 | 24972 ft | 436 kts | 137° |
| 2026-05-06 07:22 | 46.86000 | 19.61837 | 24971 ft | 447 kts | 137° |
| 2026-05-06 07:22 | 46.83752 | 19.65052 | 24970 ft | 457 kts | 137° |
| 2026-05-06 07:22 | 46.81451 | 19.68341 | 24970 ft | 466 kts | 137° |
| 2026-05-06 07:22 | 46.79117 | 19.71671 | 24968 ft | 473 kts | 137° |
| 2026-05-06 07:23 | 46.76748 | 19.75042 | 24967 ft | 476 kts | 137° |
| 2026-05-06 07:23 | 46.74374 | 19.78419 | 24967 ft | 477 kts | 137° |
| 2026-05-06 07:23 | 46.71995 | 19.81801 | 24967 ft | 477 kts | 137° |
| 2026-05-06 07:23 | 46.69618 | 19.85174 | 24972 ft | 477 kts | 137° |
| 2026-05-06 07:24 | 46.67238 | 19.88548 | 24964 ft | 477 kts | 137° |
| 2026-05-06 07:24 | 46.64853 | 19.91921 | 24969 ft | 477 kts | 137° |
| 2026-05-06 07:24 | 46.62503 | 19.95239 | 24969 ft | 477 kts | 137° |
| 2026-05-06 07:24 | 46.60124 | 19.98604 | 24974 ft | 477 kts | 137° |
| 2026-05-06 07:25 | 46.57737 | 20.01970 | 24974 ft | 477 kts | 137° |
| 2026-05-06 07:25 | 46.55344 | 20.05332 | 24971 ft | 478 kts | 137° |
| 2026-05-06 07:25 | 46.52955 | 20.08687 | 24977 ft | 478 kts | 137° |
| 2026-05-06 07:25 | 46.50571 | 20.12030 | 24977 ft | 478 kts | 137° |
| 2026-05-06 07:26 | 46.48177 | 20.15387 | 24976 ft | 478 kts | 137° |
| 2026-05-06 07:26 | 46.45780 | 20.18744 | 24986 ft | 478 kts | 137° |
| 2026-05-06 07:26 | 46.43389 | 20.22089 | 24982 ft | 478 kts | 137° |
| 2026-05-06 07:26 | 46.40994 | 20.25438 | 24982 ft | 478 kts | 137° |
| 2026-05-06 07:27 | 46.38594 | 20.28788 | 24981 ft | 478 kts | 137° |
| 2026-05-06 07:27 | 46.36228 | 20.32085 | 24986 ft | 478 kts | 137° |
| 2026-05-06 07:27 | 46.33839 | 20.35409 | 24891 ft | 474 kts | 137° |
| 2026-05-06 07:27 | 46.31464 | 20.38708 | 24153 ft | 469 kts | 137° |
| 2026-05-06 07:28 | 46.29096 | 20.41993 | 22987 ft | 474 kts | 137° |
| 2026-05-06 07:28 | 46.26715 | 20.45294 | 22138 ft | 469 kts | 137° |
| 2026-05-06 07:28 | 46.22102 | 20.51677 | 20630 ft | 454 kts | 137° |
| 2026-05-06 07:29 | 46.19832 | 20.54811 | 19882 ft | 448 kts | 137° |
| 2026-05-06 07:29 | 46.17594 | 20.57898 | 19170 ft | 441 kts | 137° |
| 2026-05-06 07:29 | 46.15391 | 20.60935 | 18471 ft | 435 kts | 137° |
| 2026-05-06 07:29 | 46.13215 | 20.63929 | 17704 ft | 429 kts | 137° |
| 2026-05-06 07:30 | 46.11068 | 20.66882 | 16893 ft | 425 kts | 137° |
| 2026-05-06 07:30 | 46.08946 | 20.69809 | 16123 ft | 420 kts | 137° |
| 2026-05-06 07:30 | 46.07075 | 20.72946 | 15377 ft | 418 kts | 126° |
| 2026-05-06 07:30 | 46.05749 | 20.76651 | 14700 ft | 415 kts | 113° |
| 2026-05-06 07:31 | 46.04756 | 20.80550 | 14024 ft | 411 kts | 111° |
| 2026-05-06 07:31 | 46.03821 | 20.84427 | 13357 ft | 407 kts | 111° |
| 2026-05-06 07:31 | 46.02896 | 20.88258 | 12621 ft | 402 kts | 111° |
| 2026-05-06 07:31 | 46.01989 | 20.91991 | 11859 ft | 386 kts | 111° |
| 2026-05-06 07:32 | 46.01137 | 20.95486 | 11182 ft | 365 kts | 112° |
| 2026-05-06 07:32 | 46.00316 | 20.98838 | 10540 ft | 346 kts | 112° |
| 2026-05-06 07:32 | 45.99526 | 21.02034 | 10145 ft | 333 kts | 113° |
| 2026-05-06 07:32 | 45.98759 | 21.05131 | 9883 ft | 324 kts | 114° |
| 2026-05-06 07:33 | 45.98010 | 21.08144 | 9623 ft | 315 kts | 114° |
| 2026-05-06 07:33 | 45.97285 | 21.11068 | 9373 ft | 307 kts | 114° |
| 2026-05-06 07:33 | 45.96574 | 21.13920 | 9067 ft | 301 kts | 114° |
| 2026-05-06 07:33 | 45.95868 | 21.16754 | 8635 ft | 300 kts | 114° |
| 2026-05-06 07:34 | 45.95171 | 21.19549 | 8206 ft | 300 kts | 114° |
| 2026-05-06 07:34 | 45.94472 | 21.22351 | 7753 ft | 292 kts | 113° |
| 2026-05-06 07:34 | 45.93805 | 21.25030 | 7324 ft | 278 kts | 113° |
| 2026-05-06 07:34 | 45.93157 | 21.27619 | 6933 ft | 277 kts | 113° |
| 2026-05-06 07:35 | 45.92499 | 21.30245 | 6522 ft | 279 kts | 113° |
| 2026-05-06 07:35 | 45.91840 | 21.32868 | 6097 ft | 280 kts | 113° |
| 2026-05-06 07:35 | 45.91178 | 21.35505 | 5677 ft | 281 kts | 112° |
| 2026-05-06 07:35 | 45.90509 | 21.38163 | 5258 ft | 284 kts | 112° |
| 2026-05-06 07:36 | 45.89846 | 21.40799 | 4851 ft | 285 kts | 112° |
| 2026-05-06 07:36 | 45.89180 | 21.43476 | 4406 ft | 285 kts | 112° |
| 2026-05-06 07:36 | 45.88516 | 21.46116 | 4043 ft | 273 kts | 112° |
| 2026-05-06 07:36 | 45.87886 | 21.48587 | 3972 ft | 247 kts | 112° |
| 2026-05-06 07:37 | 45.87314 | 21.50869 | 3990 ft | 241 kts | 112° |
| 2026-05-06 07:37 | 45.86746 | 21.53119 | 3996 ft | 240 kts | 112° |
| 2026-05-06 07:37 | 45.86181 | 21.55337 | 3986 ft | 239 kts | 112° |
| 2026-05-06 07:37 | 45.85607 | 21.57581 | 3991 ft | 239 kts | 112° |
| 2026-05-06 07:38 | 45.85034 | 21.59825 | 3990 ft | 239 kts | 112° |
| 2026-05-06 07:38 | 45.84465 | 21.62053 | 3987 ft | 238 kts | 112° |
| 2026-05-06 07:38 | 45.83897 | 21.64286 | 3984 ft | 239 kts | 112° |
| 2026-05-06 07:38 | 45.83332 | 21.66528 | 3989 ft | 238 kts | 112° |
| 2026-05-06 07:39 | 45.82773 | 21.68771 | 3989 ft | 239 kts | 112° |
| 2026-05-06 07:39 | 45.82136 | 21.70961 | 3935 ft | 237 kts | 122° |
| 2026-05-06 07:39 | 45.81113 | 21.72724 | 3787 ft | 232 kts | 144° |
| 2026-05-06 07:39 | 45.79657 | 21.73685 | 3618 ft | 228 kts | 174° |
| 2026-05-06 07:40 | 45.78130 | 21.73454 | 3504 ft | 225 kts | 202° |
| 2026-05-06 07:40 | 45.76872 | 21.72161 | 3379 ft | 224 kts | 227° |
| 2026-05-06 07:40 | 45.75859 | 21.70456 | 3267 ft | 226 kts | 231° |
| 2026-05-06 07:40 | 45.74870 | 21.68692 | 3139 ft | 226 kts | 231° |
| 2026-05-06 07:41 | 45.73950 | 21.66916 | 3007 ft | 220 kts | 245° |
| 2026-05-06 07:41 | 45.73659 | 21.64850 | 3006 ft | 205 kts | 266° |
| 2026-05-06 07:41 | 45.73780 | 21.62883 | 2997 ft | 193 kts | 281° |
| 2026-05-06 07:41 | 45.74166 | 21.61091 | 2989 ft | 188 kts | 288° |
| 2026-05-06 07:42 | 45.74600 | 21.59365 | 2988 ft | 179 kts | 288° |
| 2026-05-06 07:42 | 45.75013 | 21.57733 | 2997 ft | 176 kts | 288° |
| 2026-05-06 07:42 | 45.75426 | 21.56055 | 3007 ft | 177 kts | 287° |
| 2026-05-06 07:42 | 45.75828 | 21.54416 | 2981 ft | 176 kts | 287° |
| 2026-05-06 07:43 | 45.76237 | 21.52757 | 2835 ft | 175 kts | 288° |
| 2026-05-06 07:43 | 45.76638 | 21.51158 | 2586 ft | 165 kts | 288° |
| 2026-05-06 07:43 | 45.77024 | 21.49630 | 2380 ft | 160 kts | 288° |
| 2026-05-06 07:43 | 45.77398 | 21.48138 | 2152 ft | 161 kts | 288° |
| 2026-05-06 07:44 | 45.77775 | 21.46633 | 1942 ft | 162 kts | 288° |
| 2026-05-06 07:44 | 45.78158 | 21.45097 | 1708 ft | 156 kts | 288° |
| 2026-05-06 07:44 | 45.78508 | 21.43694 | 1507 ft | 149 kts | 288° |
| 2026-05-06 07:44 | 45.78855 | 21.42305 | 1314 ft | 146 kts | 287° |
| 2026-05-06 07:45 | 45.79186 | 21.40936 | 1096 ft | 145 kts | 285° |
| 2026-05-06 07:45 | 45.79527 | 21.39558 | 875 ft | 147 kts | 289° |
| 2026-05-06 07:45 | 45.79880 | 21.38197 | 670 ft | 147 kts | 289° |
| 2026-05-06 07:45 | 45.80226 | 21.36811 | 512 ft | 151 kts | 286° |
| 2026-05-06 07:46 | 45.80580 | 21.35393 | 366 ft | 148 kts | 287° |
| 2026-05-06 07:46 | 45.80890 | 21.34140 | 355 ft | 112 kts | 290° |
| 2026-05-06 07:46 | 45.81101 | 21.33322 | 355 ft | 64 kts | 289° |
| 2026-05-06 07:46 | 45.81198 | 21.32932 | 353 ft | 29 kts | 289° |
| 2026-05-06 07:47 | 45.81262 | 21.32665 | 358 ft | 28 kts | 291° |
| 2026-05-06 07:47 | 45.81341 | 21.32391 | 357 ft | 30 kts | 295° |
| 2026-05-06 07:47 | 45.81335 | 21.32143 | 356 ft | 23 kts | 218° |
| 2026-05-06 07:47 | 45.81234 | 21.32083 | 354 ft | 18 kts | 199° |
| 2026-05-06 07:48 | 45.81134 | 21.32089 | 353 ft | 9 kts | 124° |
| 2026-05-06 07:48 | 45.81105 | 21.32193 | 348 ft | 14 kts | 107° |
| 2026-05-06 07:48 | 45.81086 | 21.32305 | 355 ft | 11 kts | 97° |
| 2026-05-06 07:48 | 45.81076 | 21.32409 | 353 ft | 9 kts | 110° |
| 2026-05-06 07:49 | 45.81045 | 21.32440 | 356 ft | 4 kts | 167° |
| 2026-05-06 07:49 | 45.81005 | 21.32434 | 348 ft | 3 kts | 208° |
| 2026-05-06 07:49 | 45.81004 | 21.32402 | 358 ft | 5 kts | 275° |
| 2026-05-06 07:49 | 45.81017 | 21.32372 | 354 ft | 0 kts | 313° |